Airfield :
LOGIN :

Register | Disclaimer

   EN    FR    IT 

 










Legend :    VFR   Marginal VFR   IFR   Intensive IFR   Very Intensive IFR
Visi :
Ceiling :
>= 8 km
>= 3000ft
5 to 8 km
1000 to 3000 ft
1500m to 5 km
500 to 1000 ft
800 to 1500m
200 to 500 ft
< 800m
< 200 ft
Symbols :   Thunderstorms  Fog  Heavy snow  Heavy precipitations  Wind > 20 kt
SIGMETs :     Misc.  Thunderstorms  Icing  Turbulence  Mountain Waves  Volcanic Ashes







- Airport Elevation : 63 ft
- IATA code : BZM


EHWO - Woensdrecht Airbase

CURRENT METAR :
  • 171425Z AUTO 30004KT 360V090 9999 SCT044 BKN049 OVC210 25/13 Q1014 BLU

EXPIRED METARs :
  • 171355Z AUTO VRB02KT 9999 BKN045 OVC051 24/12 Q1014 BLU
  • 171325Z AUTO VRB06KT 9999 BKN042 OVC046 25/13 Q1014 BLU 33005KT 9999 FEW045 SCT350 TEMPO VRB03KT
  • 171255Z AUTO VRB05KT 9999 SCT047 BKN340 24/13 Q1014 BLU 36004KT 9999 FEW045 SCT350 TEMPO VRB03KT
  • 171240Z AUTO VRB04KT 9999 BKN045 BKN053 24/13 Q1014 BLU 36004KT 9999 FEW045 SCT350 TEMPO VRB03KT
  • 171225Z AUTO 07005KT 010V120 9999 FEW046 BKN330 23/11 Q1014 BLU 08006KT 9999 FEW040 SCT350 TEMPO VRB02KT
  • 171155Z AUTO VRB03KT 9999 FEW040 23/12 Q1014 BLU 08006KT 9999 FEW040 SCT350 TEMPO VRB02KT

TAF TAF EHWO
Valid from the 17 at 09:00 until the 17 at 21:00 UTC


170817Z 1709/1721 VRB03KT CAVOK
BECMG 1710/1713 04004KT SCT020
No reported NOTAMs for that airfield.



MET'MAP, your aeronautical weather chart ! - Copyright ORBIFLY December 2007 - Disclaimer

ORBIFLY MET'MAP TEAM :

Programming & Development : Alexandra Zaïnal
Concept & Development : Baudouin d'Aumeries
Co-Development & Prog : Marc-Olivier Méhu
Technical & hardware support : Manuel Goepfert

Contact : metmap@orbifly.com




SOURCES & CREDITS :

   NOAA